Terminal Aerodrome Forecast
Issued by NWS Cleveland, OH

Home | Current Version | Previous Version | Graphics & Text | Print | Product List | Glossary On
Versions: 1 2 3 4 5 6 7 8 9 10 11 12 13 14 15 16 17 18 19 20 21
000
FTUS41 KCLE 262300 RRA
TAFMFD
TAF
KMFD 262341Z 2700/2724 18008KT P6SM OVC250
     FM270600 20009KT P6SM OVC025
     FM271200 19012KT P6SM OVC100
     FM272200 20012KT 4SM -RA OVC015=

USA.gov is the U.S. government's official web portal to all federal, state and local government web resources and services.